createdAt,value
2022-08-26T00:00:04.538Z,1006.67
2022-08-26T00:00:39.861Z,1006.69
2022-08-26T00:01:14.955Z,1006.65
2022-08-26T00:01:50.245Z,1006.69
2022-08-26T00:02:25.598Z,1006.67
2022-08-26T00:03:00.635Z,1006.72
2022-08-26T00:03:36.001Z,1006.70
2022-08-26T00:04:11.190Z,1006.72
2022-08-26T00:04:46.442Z,1006.70
2022-08-26T00:05:21.966Z,1006.71
2022-08-26T00:05:57.403Z,1006.73
2022-08-26T00:06:32.528Z,1006.72
2022-08-26T00:07:08.035Z,1006.71
2022-08-26T00:07:50.278Z,1006.73
2022-08-26T00:08:25.277Z,1006.73
2022-08-26T00:09:00.602Z,1006.75
2022-08-26T00:09:37.259Z,1006.77
2022-08-26T00:10:11.438Z,1006.75
2022-08-26T00:10:46.967Z,1006.75
2022-08-26T00:11:26.934Z,1006.73
2022-08-26T00:11:57.350Z,1006.77
2022-08-26T00:12:37.474Z,1006.75
2022-08-26T00:13:07.849Z,1006.78
2022-08-26T00:13:47.909Z,1006.79
2022-08-26T00:14:18.222Z,1006.78
2022-08-26T00:14:53.322Z,1006.77
2022-08-26T00:15:28.429Z,1006.78
2022-08-26T00:16:03.847Z,1006.77
2022-08-26T00:16:40.978Z,1006.77
2022-08-26T00:17:14.098Z,1006.76
2022-08-26T00:17:49.092Z,1006.76
2022-08-26T00:18:24.172Z,1006.77
2022-08-26T00:18:59.413Z,1006.76
2022-08-26T00:19:34.700Z,1006.76
2022-08-26T00:20:09.798Z,1006.75
2022-08-26T00:20:44.973Z,1006.77
2022-08-26T00:21:20.285Z,1006.79
2022-08-26T00:21:55.810Z,1006.80
2022-08-26T00:22:30.773Z,1006.78
2022-08-26T00:23:06.275Z,1006.78
2022-08-26T00:23:41.589Z,1006.82
2022-08-26T00:24:16.682Z,1006.77
2022-08-26T00:24:52.285Z,1006.79
2022-08-26T00:25:27.705Z,1006.81
2022-08-26T00:26:03.214Z,1006.77
2022-08-26T00:26:38.301Z,1006.78
2022-08-26T00:27:13.489Z,1006.77
2022-08-26T00:27:48.723Z,1006.76
2022-08-26T00:28:24.110Z,1006.79
2022-08-26T00:28:59.384Z,1006.76
2022-08-26T00:29:35.546Z,1006.77
2022-08-26T00:30:09.907Z,1006.73
2022-08-26T00:30:45.509Z,1006.73
2022-08-26T00:31:20.747Z,1006.73
2022-08-26T00:31:56.274Z,1006.72
2022-08-26T00:32:31.522Z,1006.74
2022-08-26T00:33:07.150Z,1006.73
2022-08-26T00:33:42.136Z,1006.74
2022-08-26T00:34:19.356Z,1006.72
2022-08-26T00:34:53.009Z,1006.69
2022-08-26T00:35:28.062Z,1006.69
2022-08-26T00:36:03.407Z,1006.69
2022-08-26T00:36:38.721Z,1006.68
2022-08-26T00:37:16.129Z,1006.70
2022-08-26T00:37:48.951Z,1006.69
2022-08-26T00:38:24.137Z,1006.71
2022-08-26T00:38:59.266Z,1006.69
2022-08-26T00:39:34.842Z,1006.65
2022-08-26T00:40:10.222Z,1006.65
2022-08-26T00:40:45.404Z,1006.70
2022-08-26T00:41:21.045Z,1006.69
2022-08-26T00:41:56.123Z,1006.68
2022-08-26T00:42:31.445Z,1006.70
2022-08-26T00:43:07.247Z,1006.68
2022-08-26T00:43:47.405Z,1006.65
2022-08-26T00:44:17.505Z,1006.61
2022-08-26T00:44:52.768Z,1006.63
2022-08-26T00:45:27.964Z,1006.64
2022-08-26T00:46:03.476Z,1006.62
2022-08-26T00:46:38.635Z,1006.63
2022-08-26T00:47:13.839Z,1006.64
2022-08-26T00:47:49.018Z,1006.63
2022-08-26T00:48:24.308Z,1006.63
2022-08-26T00:48:59.615Z,1006.64
2022-08-26T00:49:34.818Z,1006.62
2022-08-26T00:50:10.020Z,1006.64
2022-08-26T00:50:45.318Z,1006.60
2022-08-26T00:51:20.938Z,1006.58
2022-08-26T00:51:56.246Z,1006.65
2022-08-26T00:52:31.843Z,1006.61
2022-08-26T00:53:07.324Z,1006.62
2022-08-26T00:53:42.553Z,1006.64
2022-08-26T00:54:17.559Z,1006.64
2022-08-26T00:54:53.167Z,1006.64
2022-08-26T00:55:37.714Z,1006.67
2022-08-26T00:56:03.653Z,1006.68
2022-08-26T00:56:38.911Z,1006.66
2022-08-26T00:57:16.110Z,1006.68
2022-08-26T00:57:49.434Z,1006.67
2022-08-26T00:58:24.917Z,1006.65
2022-08-26T00:59:00.121Z,1006.69
2022-08-26T00:59:35.312Z,1006.66
2022-08-26T01:00:10.907Z,1006.69
2022-08-26T01:00:46.149Z,1006.68
2022-08-26T01:01:23.041Z,1006.66
2022-08-26T01:01:56.751Z,1006.66
2022-08-26T01:02:32.097Z,1006.67
2022-08-26T01:03:07.628Z,1006.67
2022-08-26T01:03:42.937Z,1006.68
2022-08-26T01:04:18.133Z,1006.66
2022-08-26T01:04:55.850Z,1006.67
2022-08-26T01:05:29.176Z,1006.67
2022-08-26T01:06:04.419Z,1006.66
2022-08-26T01:06:39.814Z,1006.67
2022-08-26T01:07:15.371Z,1006.65
2022-08-26T01:07:50.682Z,1006.66
2022-08-26T01:08:25.983Z,1006.66
2022-08-26T01:09:01.067Z,1006.67
2022-08-26T01:09:36.554Z,1006.65
2022-08-26T01:10:11.768Z,1006.66
2022-08-26T01:10:46.964Z,1006.67
2022-08-26T01:11:22.285Z,1006.65
2022-08-26T01:11:57.486Z,1006.67
2022-08-26T01:12:32.781Z,1006.64
2022-08-26T01:13:08.354Z,1006.62
2022-08-26T01:13:43.191Z,1006.60
2022-08-26T01:14:18.365Z,1006.59
2022-08-26T01:14:53.576Z,1006.60
2022-08-26T01:15:29.060Z,1006.60
2022-08-26T01:16:04.438Z,1006.57
2022-08-26T01:16:39.571Z,1006.59
2022-08-26T01:17:14.793Z,1006.59
2022-08-26T01:17:49.893Z,1006.58
2022-08-26T01:18:25.170Z,1006.59
2022-08-26T01:19:00.553Z,1006.58
2022-08-26T01:19:35.770Z,1006.57
2022-08-26T01:20:18.071Z,1006.60
2022-08-26T01:20:53.289Z,1006.60
2022-08-26T01:21:29.454Z,1006.61
2022-08-26T01:22:04.399Z,1006.60
2022-08-26T01:22:39.498Z,1006.62
2022-08-26T01:23:14.925Z,1006.63
2022-08-26T01:23:50.206Z,1006.62
2022-08-26T01:24:25.645Z,1006.60
2022-08-26T01:25:00.627Z,1006.64
2022-08-26T01:25:35.693Z,1006.64
2022-08-26T01:26:19.653Z,1006.68
2022-08-26T01:26:46.319Z,1006.68
2022-08-26T01:27:21.424Z,1006.67
2022-08-26T01:27:56.549Z,1006.68
2022-08-26T01:28:31.835Z,1006.68
2022-08-26T01:29:07.081Z,1006.70
2022-08-26T01:29:42.667Z,1006.67
2022-08-26T01:30:18.271Z,1006.68
2022-08-26T01:30:53.352Z,1006.70
2022-08-26T01:31:28.623Z,1006.72
2022-08-26T01:32:03.672Z,1006.72
2022-08-26T01:32:39.043Z,1006.74
2022-08-26T01:33:14.091Z,1006.75
2022-08-26T01:33:49.224Z,1006.75
2022-08-26T01:34:24.606Z,1006.77
2022-08-26T01:34:59.925Z,1006.77
2022-08-26T01:35:35.024Z,1006.84
2022-08-26T01:36:10.396Z,1006.85
2022-08-26T01:36:50.591Z,1006.87
2022-08-26T01:37:21.017Z,1006.86
2022-08-26T01:37:56.299Z,1006.85
2022-08-26T01:38:31.563Z,1006.82
2022-08-26T01:39:07.351Z,1006.81
2022-08-26T01:39:41.976Z,1006.81
2022-08-26T01:40:17.163Z,1006.85
2022-08-26T01:40:52.688Z,1006.88
2022-08-26T01:41:29.224Z,1006.86
2022-08-26T01:42:03.475Z,1006.90
2022-08-26T01:42:38.737Z,1006.89
2022-08-26T01:43:13.962Z,1006.81
2022-08-26T01:43:49.349Z,1006.82
2022-08-26T01:44:24.579Z,1006.79
2022-08-26T01:44:59.768Z,1006.80
2022-08-26T01:45:35.225Z,1006.86
2022-08-26T01:46:10.559Z,1006.88
2022-08-26T01:46:45.666Z,1006.91
2022-08-26T01:47:20.763Z,1006.96
2022-08-26T01:47:56.885Z,1006.96
2022-08-26T01:48:31.468Z,1006.98
2022-08-26T01:49:06.781Z,1006.95
2022-08-26T01:49:42.144Z,1006.92
2022-08-26T01:50:28.175Z,1006.88
2022-08-26T01:50:52.637Z,1006.91
2022-08-26T01:51:27.705Z,1006.90
2022-08-26T01:52:02.934Z,1006.89
2022-08-26T01:52:38.124Z,1006.92
2022-08-26T01:53:13.363Z,1006.89
2022-08-26T01:53:48.536Z,1006.90
2022-08-26T01:54:23.852Z,1006.89
2022-08-26T01:54:59.149Z,1006.88
2022-08-26T01:55:34.976Z,1006.86
2022-08-26T01:56:09.880Z,1006.89
2022-08-26T01:56:45.003Z,1006.90
2022-08-26T01:57:20.197Z,1006.93
2022-08-26T01:57:56.261Z,1006.96
2022-08-26T01:58:30.606Z,1006.97
2022-08-26T01:59:05.713Z,1006.92
2022-08-26T01:59:40.801Z,1006.92
2022-08-26T02:00:16.322Z,1006.86
2022-08-26T02:00:51.787Z,1006.87
2022-08-26T02:01:29.135Z,1006.85
2022-08-26T02:02:02.153Z,1006.88
2022-08-26T02:02:37.474Z,1006.88
2022-08-26T02:03:12.966Z,1006.92
2022-08-26T02:03:48.077Z,1006.94
2022-08-26T02:04:23.234Z,1006.96
2022-08-26T02:04:58.731Z,1007.03
2022-08-26T02:05:34.003Z,1007.01
2022-08-26T02:06:09.203Z,1007.00
2022-08-26T02:06:44.104Z,1006.94
2022-08-26T02:07:19.416Z,1006.98
2022-08-26T02:07:54.511Z,1006.96
2022-08-26T02:08:30.132Z,1006.95
2022-08-26T02:09:05.336Z,1006.91
2022-08-26T02:09:41.373Z,1006.94
2022-08-26T02:10:16.058Z,1006.98
2022-08-26T02:10:51.567Z,1006.97
2022-08-26T02:11:26.958Z,1007.00
2022-08-26T02:12:01.972Z,1006.99
2022-08-26T02:12:37.558Z,1007.00
2022-08-26T02:13:12.867Z,1007.03
2022-08-26T02:13:48.347Z,1007.02
2022-08-26T02:14:23.659Z,1007.01
2022-08-26T02:14:58.953Z,1007.01
2022-08-26T02:15:34.381Z,1007.01
2022-08-26T02:16:09.581Z,1007.00
2022-08-26T02:16:44.940Z,1006.96
2022-08-26T02:17:21.251Z,1006.97
2022-08-26T02:17:55.802Z,1006.96
2022-08-26T02:18:30.899Z,1006.91
2022-08-26T02:19:06.302Z,1006.90
2022-08-26T02:19:41.499Z,1006.92
2022-08-26T02:20:16.597Z,1006.89
2022-08-26T02:20:51.890Z,1006.85
2022-08-26T02:21:27.216Z,1006.85
2022-08-26T02:22:02.549Z,1006.83
2022-08-26T02:22:37.956Z,1006.85
2022-08-26T02:23:12.774Z,1006.89
2022-08-26T02:23:47.894Z,1006.89
2022-08-26T02:24:22.879Z,1006.90
2022-08-26T02:24:57.890Z,1006.92
2022-08-26T02:25:33.080Z,1006.89
2022-08-26T02:26:08.498Z,1006.93
2022-08-26T02:26:43.786Z,1006.96
2022-08-26T02:27:18.805Z,1006.93
2022-08-26T02:27:54.190Z,1006.90
2022-08-26T02:28:29.390Z,1006.92
2022-08-26T02:29:04.677Z,1006.87
2022-08-26T02:29:39.779Z,1006.89
2022-08-26T02:30:15.374Z,1006.90
2022-08-26T02:30:50.491Z,1006.88
2022-08-26T02:31:25.952Z,1006.88
2022-08-26T02:32:01.116Z,1006.86
2022-08-26T02:32:36.521Z,1006.84
2022-08-26T02:33:11.544Z,1006.83
2022-08-26T02:33:46.633Z,1006.84
2022-08-26T02:34:21.822Z,1006.85
2022-08-26T02:34:56.926Z,1006.85
2022-08-26T02:35:32.119Z,1006.82
2022-08-26T02:36:07.421Z,1006.81
2022-08-26T02:36:42.717Z,1006.81
2022-08-26T02:37:18.145Z,1006.86
2022-08-26T02:37:53.445Z,1006.84
2022-08-26T02:38:28.767Z,1006.85
2022-08-26T02:39:03.872Z,1006.87
2022-08-26T02:39:39.088Z,1006.87
2022-08-26T02:40:14.031Z,1006.90
2022-08-26T02:40:49.089Z,1006.86
2022-08-26T02:41:24.521Z,1006.89
2022-08-26T02:41:59.756Z,1006.85
2022-08-26T02:42:34.855Z,1006.87
2022-08-26T02:43:10.447Z,1006.87
2022-08-26T02:43:45.443Z,1006.82
2022-08-26T02:44:20.627Z,1006.84
2022-08-26T02:44:56.043Z,1006.81
2022-08-26T02:45:31.114Z,1006.81
2022-08-26T02:46:06.419Z,1006.85
2022-08-26T02:46:41.573Z,1006.82
2022-08-26T02:47:16.800Z,1006.81
2022-08-26T02:47:52.397Z,1006.83
2022-08-26T02:48:27.211Z,1006.84
2022-08-26T02:49:02.512Z,1006.85
2022-08-26T02:49:37.920Z,1006.88
2022-08-26T02:50:13.111Z,1006.87
2022-08-26T02:50:48.639Z,1006.85
2022-08-26T02:51:24.031Z,1006.89
2022-08-26T02:51:59.346Z,1006.89
2022-08-26T02:52:34.527Z,1006.87
2022-08-26T02:53:10.041Z,1006.88
2022-08-26T02:53:45.150Z,1006.85
2022-08-26T02:54:20.470Z,1006.87
2022-08-26T02:54:55.916Z,1006.81
2022-08-26T02:55:31.212Z,1006.82
2022-08-26T02:56:06.415Z,1006.79
2022-08-26T02:56:41.747Z,1006.78
2022-08-26T02:57:16.952Z,1006.77
2022-08-26T02:57:52.049Z,1006.74
2022-08-26T02:58:26.962Z,1006.75
2022-08-26T02:59:02.071Z,1006.78
2022-08-26T02:59:37.368Z,1006.76
2022-08-26T03:00:12.676Z,1006.77
2022-08-26T03:00:52.991Z,1006.78
2022-08-26T03:01:23.203Z,1006.78
2022-08-26T03:01:58.507Z,1006.81
2022-08-26T03:02:33.676Z,1006.85
2022-08-26T03:03:08.815Z,1006.85
2022-08-26T03:03:43.871Z,1006.81
2022-08-26T03:04:19.184Z,1006.86
2022-08-26T03:04:57.897Z,1006.81
2022-08-26T03:05:29.784Z,1006.84
2022-08-26T03:06:05.284Z,1006.83
2022-08-26T03:06:40.700Z,1006.80
2022-08-26T03:07:15.816Z,1006.84
2022-08-26T03:07:51.218Z,1006.84
2022-08-26T03:08:26.443Z,1006.86
2022-08-26T03:09:01.657Z,1006.85
2022-08-26T03:09:36.879Z,1006.82
2022-08-26T03:10:12.174Z,1006.81
2022-08-26T03:10:48.043Z,1006.80
2022-08-26T03:11:23.191Z,1006.80
2022-08-26T03:11:58.325Z,1006.78
2022-08-26T03:12:33.428Z,1006.76
2022-08-26T03:13:08.758Z,1006.76
2022-08-26T03:13:43.832Z,1006.78
2022-08-26T03:14:19.043Z,1006.79
2022-08-26T03:14:54.134Z,1006.78
2022-08-26T03:15:29.235Z,1006.75
2022-08-26T03:16:04.406Z,1006.79
2022-08-26T03:16:39.727Z,1006.77
2022-08-26T03:17:14.840Z,1006.77
2022-08-26T03:17:50.518Z,1006.77
2022-08-26T03:18:25.852Z,1006.81
2022-08-26T03:19:01.078Z,1006.83
2022-08-26T03:19:36.371Z,1006.80
2022-08-26T03:20:11.672Z,1006.82
2022-08-26T03:20:46.969Z,1006.79
2022-08-26T03:21:22.193Z,1006.76
2022-08-26T03:21:57.912Z,1006.78
2022-08-26T03:22:32.599Z,1006.80
2022-08-26T03:23:08.182Z,1006.74
2022-08-26T03:23:42.989Z,1006.75
2022-08-26T03:24:18.194Z,1006.74
2022-08-26T03:24:53.689Z,1006.76
2022-08-26T03:25:29.173Z,1006.79
2022-08-26T03:26:04.369Z,1006.79
2022-08-26T03:26:39.889Z,1006.79
2022-08-26T03:27:15.535Z,1006.82
2022-08-26T03:27:50.746Z,1006.81
2022-08-26T03:28:27.253Z,1006.83
2022-08-26T03:29:01.149Z,1006.82
2022-08-26T03:29:36.357Z,1006.82
2022-08-26T03:30:11.750Z,1006.81
2022-08-26T03:30:46.782Z,1006.76
2022-08-26T03:31:22.063Z,1006.78
2022-08-26T03:31:57.221Z,1006.74
2022-08-26T03:32:32.524Z,1006.74
2022-08-26T03:33:08.127Z,1006.73
2022-08-26T03:33:43.109Z,1006.75
2022-08-26T03:34:18.433Z,1006.78
2022-08-26T03:34:53.441Z,1006.79
2022-08-26T03:35:28.846Z,1006.77
2022-08-26T03:36:04.228Z,1006.76
2022-08-26T03:36:39.344Z,1006.74
2022-08-26T03:37:14.536Z,1006.77
2022-08-26T03:37:50.127Z,1006.74
2022-08-26T03:38:25.226Z,1006.75
2022-08-26T03:39:00.733Z,1006.75
2022-08-26T03:39:36.343Z,1006.75
2022-08-26T03:40:11.818Z,1006.76
2022-08-26T03:40:46.871Z,1006.75
2022-08-26T03:41:22.162Z,1006.78
2022-08-26T03:41:57.586Z,1006.77
2022-08-26T03:42:32.782Z,1006.77
2022-08-26T03:43:09.536Z,1006.78
2022-08-26T03:43:43.218Z,1006.76
2022-08-26T03:44:18.323Z,1006.79
2022-08-26T03:44:53.534Z,1006.80
2022-08-26T03:45:29.100Z,1006.76
2022-08-26T03:46:04.269Z,1006.78
2022-08-26T03:46:39.518Z,1006.77
2022-08-26T03:47:14.845Z,1006.78
2022-08-26T03:47:50.143Z,1006.76
2022-08-26T03:48:25.641Z,1006.79
2022-08-26T03:49:00.552Z,1006.81
2022-08-26T03:49:35.539Z,1006.81
2022-08-26T03:50:10.655Z,1006.80
2022-08-26T03:50:45.842Z,1006.81
2022-08-26T03:51:21.258Z,1006.85
2022-08-26T03:51:56.666Z,1006.84
2022-08-26T03:52:31.953Z,1006.84
2022-08-26T03:53:11.762Z,1006.85
2022-08-26T03:53:42.446Z,1006.85
2022-08-26T03:54:17.646Z,1006.87
2022-08-26T03:54:53.036Z,1006.84
2022-08-26T03:55:28.550Z,1006.88
2022-08-26T03:56:03.871Z,1006.90
2022-08-26T03:56:38.899Z,1006.84
2022-08-26T03:57:14.199Z,1006.89
2022-08-26T03:57:49.199Z,1006.85
2022-08-26T03:58:24.101Z,1006.89
2022-08-26T03:58:59.297Z,1006.93
2022-08-26T03:59:34.801Z,1006.90
2022-08-26T04:00:10.199Z,1006.89
2022-08-26T04:00:45.324Z,1006.92
2022-08-26T04:01:20.833Z,1006.93
2022-08-26T04:01:55.870Z,1006.93
2022-08-26T04:02:31.413Z,1006.92
2022-08-26T04:03:06.624Z,1006.93
2022-08-26T04:03:41.670Z,1006.95
2022-08-26T04:04:16.751Z,1006.95
2022-08-26T04:04:52.079Z,1006.93
2022-08-26T04:05:27.087Z,1006.92
2022-08-26T04:06:02.487Z,1006.89
2022-08-26T04:06:37.819Z,1006.94
2022-08-26T04:07:13.003Z,1006.90
2022-08-26T04:07:48.598Z,1006.93
2022-08-26T04:08:23.523Z,1006.91
2022-08-26T04:08:59.197Z,1006.93
2022-08-26T04:09:35.233Z,1006.94
2022-08-26T04:10:09.892Z,1006.93
2022-08-26T04:10:45.201Z,1006.99
2022-08-26T04:11:20.474Z,1006.98
2022-08-26T04:11:55.679Z,1006.98
2022-08-26T04:12:30.872Z,1006.97
2022-08-26T04:13:06.003Z,1006.95
2022-08-26T04:13:40.912Z,1006.94
2022-08-26T04:14:17.649Z,1006.91
2022-08-26T04:14:51.492Z,1006.91
2022-08-26T04:15:27.129Z,1006.93
2022-08-26T04:16:02.591Z,1006.94
2022-08-26T04:16:38.035Z,1006.95
2022-08-26T04:17:13.557Z,1006.96
2022-08-26T04:17:48.951Z,1006.94
2022-08-26T04:18:24.146Z,1006.96
2022-08-26T04:18:59.360Z,1006.98
2022-08-26T04:19:34.649Z,1006.97
2022-08-26T04:20:09.960Z,1006.97
2022-08-26T04:20:45.064Z,1006.96
2022-08-26T04:21:20.578Z,1006.94
2022-08-26T04:21:55.801Z,1006.92
2022-08-26T04:22:31.201Z,1006.89
2022-08-26T04:23:06.558Z,1006.93
2022-08-26T04:23:47.654Z,1006.90
2022-08-26T04:24:17.660Z,1006.94
2022-08-26T04:24:52.167Z,1006.92
2022-08-26T04:25:27.279Z,1006.93
2022-08-26T04:26:02.176Z,1006.90
2022-08-26T04:26:39.525Z,1006.90
2022-08-26T04:27:12.969Z,1006.90
2022-08-26T04:27:48.172Z,1006.87
2022-08-26T04:28:23.259Z,1006.89
2022-08-26T04:28:58.246Z,1006.90
2022-08-26T04:29:33.665Z,1006.84
2022-08-26T04:30:09.597Z,1006.88
2022-08-26T04:30:44.683Z,1006.86
2022-08-26T04:31:20.138Z,1006.87
2022-08-26T04:31:55.802Z,1006.91
2022-08-26T04:32:30.244Z,1006.90
2022-08-26T04:33:12.928Z,1006.88
2022-08-26T04:33:41.856Z,1006.93
2022-08-26T04:34:16.586Z,1006.88
2022-08-26T04:34:51.710Z,1006.89
2022-08-26T04:35:26.881Z,1006.91
2022-08-26T04:36:02.120Z,1006.91
2022-08-26T04:36:37.411Z,1006.93
2022-08-26T04:37:12.638Z,1006.92
2022-08-26T04:37:47.619Z,1006.93
2022-08-26T04:38:22.855Z,1006.95
2022-08-26T04:38:58.155Z,1006.93
2022-08-26T04:39:33.276Z,1006.91
2022-08-26T04:40:08.570Z,1006.93
2022-08-26T04:40:46.751Z,1006.93
2022-08-26T04:41:19.329Z,1006.96
2022-08-26T04:41:54.747Z,1006.96
2022-08-26T04:42:29.854Z,1006.96
2022-08-26T04:43:05.135Z,1006.96
2022-08-26T04:43:39.859Z,1006.93
2022-08-26T04:44:14.966Z,1006.94
2022-08-26T04:44:50.085Z,1006.94
2022-08-26T04:45:25.115Z,1006.95
2022-08-26T04:46:00.204Z,1006.96
2022-08-26T04:46:35.519Z,1006.93
2022-08-26T04:47:10.966Z,1006.92
2022-08-26T04:47:46.374Z,1006.92
2022-08-26T04:48:21.908Z,1006.95
2022-08-26T04:48:56.996Z,1006.95
2022-08-26T04:49:35.541Z,1006.96
2022-08-26T04:50:07.860Z,1006.95
2022-08-26T04:50:43.064Z,1006.97
2022-08-26T04:51:18.371Z,1006.97
2022-08-26T04:51:53.674Z,1006.97
2022-08-26T04:52:28.885Z,1007.00
2022-08-26T04:53:04.003Z,1007.00
2022-08-26T04:53:39.455Z,1006.98
2022-08-26T04:54:15.050Z,1007.03
2022-08-26T04:54:50.476Z,1007.02
2022-08-26T04:55:38.537Z,1007.02
2022-08-26T04:56:00.908Z,1007.06
2022-08-26T04:56:36.254Z,1007.04
2022-08-26T04:57:11.633Z,1007.09
2022-08-26T04:57:46.853Z,1007.09
2022-08-26T04:58:22.292Z,1007.05
2022-08-26T04:58:57.729Z,1007.03
2022-08-26T04:59:36.012Z,1007.05
2022-08-26T05:00:08.450Z,1007.06
2022-08-26T05:00:43.491Z,1007.06
2022-08-26T05:01:18.645Z,1007.08
2022-08-26T05:01:54.128Z,1007.07
2022-08-26T05:02:29.455Z,1007.06
2022-08-26T05:03:04.726Z,1007.05
2022-08-26T05:03:40.146Z,1007.06
2022-08-26T05:04:16.207Z,1007.12
2022-08-26T05:04:51.893Z,1007.12
2022-08-26T05:05:25.760Z,1007.09
2022-08-26T05:06:01.051Z,1007.12
2022-08-26T05:06:37.198Z,1007.13
2022-08-26T05:07:11.996Z,1007.12
2022-08-26T05:07:47.429Z,1007.12
2022-08-26T05:08:22.631Z,1007.13
2022-08-26T05:08:58.157Z,1007.19
2022-08-26T05:09:33.454Z,1007.15
2022-08-26T05:10:08.918Z,1007.14
2022-08-26T05:10:43.800Z,1007.17
2022-08-26T05:11:19.324Z,1007.18
2022-08-26T05:11:54.913Z,1007.18
2022-08-26T05:12:30.155Z,1007.21
2022-08-26T05:13:05.451Z,1007.20
2022-08-26T05:13:40.878Z,1007.22
2022-08-26T05:14:15.898Z,1007.21
2022-08-26T05:14:51.124Z,1007.22
2022-08-26T05:15:26.322Z,1007.20
2022-08-26T05:16:01.965Z,1007.22
2022-08-26T05:16:37.463Z,1007.21
2022-08-26T05:17:14.991Z,1007.25
2022-08-26T05:17:48.044Z,1007.27
2022-08-26T05:18:23.286Z,1007.25
2022-08-26T05:18:58.882Z,1007.27
2022-08-26T05:19:34.023Z,1007.24
2022-08-26T05:20:09.534Z,1007.26
2022-08-26T05:20:44.887Z,1007.24
2022-08-26T05:21:20.547Z,1007.25
2022-08-26T05:21:55.885Z,1007.20
2022-08-26T05:22:31.292Z,1007.18
2022-08-26T05:23:06.933Z,1007.20
2022-08-26T05:23:42.166Z,1007.21
2022-08-26T05:24:17.907Z,1007.20
2022-08-26T05:24:52.596Z,1007.20
2022-08-26T05:25:27.811Z,1007.19
2022-08-26T05:26:04.942Z,1007.22
2022-08-26T05:26:38.460Z,1007.19
2022-08-26T05:27:13.539Z,1007.17
2022-08-26T05:27:48.770Z,1007.22
2022-08-26T05:28:23.786Z,1007.19
2022-08-26T05:28:58.901Z,1007.17
2022-08-26T05:29:34.305Z,1007.21
2022-08-26T05:30:09.822Z,1007.22
2022-08-26T05:30:44.996Z,1007.19
2022-08-26T05:31:20.309Z,1007.23
2022-08-26T05:31:56.028Z,1007.26
2022-08-26T05:32:30.984Z,1007.26
2022-08-26T05:33:06.214Z,1007.27
2022-08-26T05:33:41.674Z,1007.28
2022-08-26T05:34:16.875Z,1007.26
2022-08-26T05:34:52.295Z,1007.28
2022-08-26T05:35:27.527Z,1007.26
2022-08-26T05:36:02.731Z,1007.28
2022-08-26T05:36:38.052Z,1007.28
2022-08-26T05:37:13.679Z,1007.27
2022-08-26T05:37:48.067Z,1007.28
2022-08-26T05:38:23.332Z,1007.27
2022-08-26T05:38:58.374Z,1007.26
2022-08-26T05:39:33.429Z,1007.27
2022-08-26T05:40:08.949Z,1007.28
2022-08-26T05:40:44.149Z,1007.29
2022-08-26T05:41:19.571Z,1007.31
2022-08-26T05:41:54.777Z,1007.29
2022-08-26T05:42:29.887Z,1007.32
2022-08-26T05:43:06.204Z,1007.31
2022-08-26T05:43:41.601Z,1007.32
2022-08-26T05:44:16.989Z,1007.29
2022-08-26T05:44:55.391Z,1007.29
2022-08-26T05:45:27.436Z,1007.31
2022-08-26T05:46:02.641Z,1007.30
2022-08-26T05:46:38.114Z,1007.31
2022-08-26T05:47:13.272Z,1007.34
2022-08-26T05:47:48.521Z,1007.33
2022-08-26T05:48:24.438Z,1007.35
2022-08-26T05:48:58.920Z,1007.35
2022-08-26T05:49:34.346Z,1007.31
2022-08-26T05:50:09.645Z,1007.35
2022-08-26T05:50:45.156Z,1007.37
2022-08-26T05:51:23.982Z,1007.40
2022-08-26T05:51:55.617Z,1007.40
2022-08-26T05:52:30.916Z,1007.39
2022-08-26T05:53:06.037Z,1007.45
2022-08-26T05:53:43.988Z,1007.45
2022-08-26T05:54:22.084Z,1007.49
2022-08-26T05:54:52.254Z,1007.47
2022-08-26T05:55:27.588Z,1007.44
2022-08-26T05:56:02.874Z,1007.44
2022-08-26T05:56:38.093Z,1007.53
2022-08-26T05:57:13.396Z,1007.52
2022-08-26T05:57:48.513Z,1007.53
2022-08-26T05:58:23.743Z,1007.52
2022-08-26T05:58:59.727Z,1007.52
2022-08-26T05:59:34.202Z,1007.55
2022-08-26T06:00:09.318Z,1007.56
2022-08-26T06:00:44.531Z,1007.56
2022-08-26T06:01:19.700Z,1007.56
2022-08-26T06:01:55.354Z,1007.54
2022-08-26T06:02:30.295Z,1007.56
2022-08-26T06:03:05.726Z,1007.57
2022-08-26T06:03:40.802Z,1007.57
2022-08-26T06:04:15.954Z,1007.58
2022-08-26T06:04:50.994Z,1007.62
2022-08-26T06:05:26.107Z,1007.63
2022-08-26T06:06:01.316Z,1007.59
2022-08-26T06:06:36.443Z,1007.62
2022-08-26T06:07:12.083Z,1007.61
2022-08-26T06:07:47.240Z,1007.64
2022-08-26T06:08:22.502Z,1007.67
2022-08-26T06:09:05.626Z,1007.66
2022-08-26T06:09:41.336Z,1007.60
2022-08-26T06:10:31.688Z,1007.62
2022-08-26T06:10:51.541Z,1007.67
2022-08-26T06:11:26.897Z,1007.65
2022-08-26T06:12:02.261Z,1007.64
2022-08-26T06:12:37.989Z,1007.61
2022-08-26T06:13:13.691Z,1007.62
2022-08-26T06:13:48.956Z,1007.61
2022-08-26T06:14:24.263Z,1007.67
2022-08-26T06:14:59.270Z,1007.61
2022-08-26T06:15:34.624Z,1007.68
2022-08-26T06:16:09.809Z,1007.65
2022-08-26T06:16:45.121Z,1007.62
2022-08-26T06:17:20.328Z,1007.63
2022-08-26T06:17:55.741Z,1007.63
2022-08-26T06:18:30.868Z,1007.65
2022-08-26T06:19:10.554Z,1007.64
2022-08-26T06:19:41.584Z,1007.60
2022-08-26T06:20:16.868Z,1007.63
2022-08-26T06:20:57.195Z,1007.62
2022-08-26T06:21:27.641Z,1007.67
2022-08-26T06:22:02.867Z,1007.70
2022-08-26T06:22:38.140Z,1007.68
2022-08-26T06:23:13.483Z,1007.67
2022-08-26T06:23:48.918Z,1007.66
2022-08-26T06:24:27.255Z,1007.66
2022-08-26T06:24:59.244Z,1007.66
2022-08-26T06:25:34.579Z,1007.66
2022-08-26T06:26:10.983Z,1007.66
2022-08-26T06:26:50.300Z,1007.66
2022-08-26T06:27:20.819Z,1007.69
2022-08-26T06:27:56.295Z,1007.68
2022-08-26T06:28:31.301Z,1007.70
2022-08-26T06:29:06.740Z,1007.67
2022-08-26T06:29:42.052Z,1007.72
2022-08-26T06:30:17.407Z,1007.74
2022-08-26T06:30:52.835Z,1007.71
2022-08-26T06:31:28.400Z,1007.73
2022-08-26T06:32:03.560Z,1007.75
2022-08-26T06:32:38.831Z,1007.78
2022-08-26T06:33:14.126Z,1007.76
2022-08-26T06:33:49.359Z,1007.78
2022-08-26T06:34:29.851Z,1007.80
2022-08-26T06:34:59.975Z,1007.82
2022-08-26T06:35:35.276Z,1007.80
2022-08-26T06:36:10.623Z,1007.83
2022-08-26T06:36:46.078Z,1007.82
2022-08-26T06:37:21.549Z,1007.82
2022-08-26T06:37:56.737Z,1007.83
2022-08-26T06:38:32.266Z,1007.85
2022-08-26T06:39:07.784Z,1007.87
2022-08-26T06:39:43.115Z,1007.83
2022-08-26T06:40:18.289Z,1007.87
2022-08-26T06:40:53.462Z,1007.85
2022-08-26T06:41:28.906Z,1007.96
2022-08-26T06:42:06.262Z,1007.89
2022-08-26T06:42:39.443Z,1007.90
2022-08-26T06:43:14.846Z,1007.89
2022-08-26T06:43:50.057Z,1007.91
2022-08-26T06:44:25.312Z,1007.94
2022-08-26T06:45:00.321Z,1007.92
2022-08-26T06:45:35.438Z,1007.91
2022-08-26T06:46:10.573Z,1007.87
2022-08-26T06:46:46.221Z,1007.89
2022-08-26T06:47:21.418Z,1007.91
2022-08-26T06:47:56.489Z,1007.90
2022-08-26T06:48:31.906Z,1007.91
2022-08-26T06:49:07.232Z,1007.91
2022-08-26T06:49:42.632Z,1007.94
2022-08-26T06:50:17.732Z,1007.93
2022-08-26T06:50:53.139Z,1007.90
2022-08-26T06:51:28.699Z,1007.93
2022-08-26T06:52:03.905Z,1007.89
2022-08-26T06:52:39.041Z,1007.92
2022-08-26T06:53:14.542Z,1007.92
2022-08-26T06:53:49.761Z,1007.92
2022-08-26T06:54:24.861Z,1007.92
2022-08-26T06:55:00.107Z,1007.89
2022-08-26T06:55:35.197Z,1007.92
2022-08-26T06:56:10.625Z,1007.90
2022-08-26T06:56:46.142Z,1007.96
2022-08-26T06:57:21.303Z,1007.88
2022-08-26T06:57:56.771Z,1007.91
2022-08-26T06:58:32.185Z,1007.93
2022-08-26T06:59:07.690Z,1007.89
2022-08-26T06:59:42.710Z,1007.93
2022-08-26T07:00:18.130Z,1007.92
2022-08-26T07:00:53.569Z,1007.95
2022-08-26T07:01:28.820Z,1007.97
2022-08-26T07:02:04.118Z,1007.98
2022-08-26T07:02:39.419Z,1007.96
2022-08-26T07:03:14.566Z,1007.99
2022-08-26T07:03:49.476Z,1008.00
2022-08-26T07:04:24.814Z,1008.03
2022-08-26T07:05:00.024Z,1008.02
2022-08-26T07:05:35.776Z,1008.02
2022-08-26T07:06:10.960Z,1008.01
2022-08-26T07:06:46.601Z,1008.03